createdAt,value
2019-04-30T00:00:42.658Z,3.90
2019-04-30T00:03:19.687Z,4.27
2019-04-30T00:05:49.405Z,4.13
2019-04-30T00:08:18.258Z,4.00
2019-04-30T00:10:46.755Z,4.00
2019-04-30T00:13:20.655Z,4.43
2019-04-30T00:15:47.795Z,4.47
2019-04-30T00:18:15.644Z,5.07
2019-04-30T00:20:45.336Z,4.77
2019-04-30T00:23:17.814Z,5.10
2019-04-30T00:25:46.031Z,5.60
2019-04-30T00:28:15.500Z,5.30
2019-04-30T00:30:47.707Z,5.37
2019-04-30T00:33:15.204Z,6.10
2019-04-30T00:35:45.352Z,6.03
2019-04-30T00:38:15.109Z,5.87
2019-04-30T00:40:45.060Z,6.40
2019-04-30T00:43:15.468Z,6.33
2019-04-30T00:45:47.096Z,6.53
2019-04-30T00:48:19.745Z,6.63
2019-04-30T00:50:45.750Z,6.83
2019-04-30T00:53:16.166Z,6.97
2019-04-30T00:55:48.241Z,7.37
2019-04-30T00:58:17.690Z,6.70
2019-04-30T01:00:48.725Z,7.63
2019-04-30T01:03:18.954Z,7.70
2019-04-30T01:05:47.993Z,7.20
2019-04-30T01:08:16.414Z,7.07
2019-04-30T01:10:46.009Z,7.80
2019-04-30T01:13:14.508Z,8.17
2019-04-30T01:15:43.997Z,7.57
2019-04-30T01:18:13.446Z,7.67
2019-04-30T01:20:41.981Z,8.50
2019-04-30T01:23:13.419Z,8.43
2019-04-30T01:25:43.264Z,8.23
2019-04-30T01:28:16.394Z,7.80
2019-04-30T01:30:43.400Z,7.17
2019-04-30T01:33:12.254Z,8.10
2019-04-30T01:35:40.712Z,7.53
2019-04-30T01:38:12.463Z,7.30
2019-04-30T01:40:42.931Z,7.60
2019-04-30T01:43:12.609Z,7.30
2019-04-30T01:45:40.976Z,7.60
2019-04-30T01:48:12.556Z,6.83
2019-04-30T01:50:42.071Z,7.27
2019-04-30T01:53:13.182Z,7.83
2019-04-30T01:55:59.234Z,7.10
2019-04-30T01:58:30.166Z,6.47
2019-04-30T02:01:06.380Z,6.57
2019-04-30T02:03:34.770Z,6.77
2019-04-30T02:06:03.345Z,6.83
2019-04-30T02:08:31.751Z,6.67
2019-04-30T02:11:00.144Z,7.00
2019-04-30T02:13:29.488Z,6.63
2019-04-30T02:15:59.228Z,6.90
2019-04-30T02:18:29.625Z,7.47
2019-04-30T02:20:59.482Z,6.90
2019-04-30T02:23:29.768Z,7.50
2019-04-30T02:25:59.000Z,6.53
2019-04-30T02:28:29.035Z,7.23
2019-04-30T02:30:59.987Z,5.80
2019-04-30T02:33:30.621Z,6.20
2019-04-30T02:36:10.277Z,6.20
2019-04-30T02:38:40.447Z,6.13
2019-04-30T02:41:09.939Z,5.60
2019-04-30T02:43:41.162Z,6.00
2019-04-30T02:46:11.096Z,5.53
2019-04-30T02:48:40.533Z,5.47
2019-04-30T02:51:11.439Z,5.57
2019-04-30T02:54:00.392Z,4.93
2019-04-30T02:56:30.049Z,4.87
2019-04-30T02:59:03.171Z,4.67
2019-04-30T03:01:30.540Z,4.73
2019-04-30T03:03:59.821Z,4.90
2019-04-30T03:06:30.421Z,4.53
2019-04-30T03:09:01.000Z,4.60
2019-04-30T03:11:30.081Z,4.97
2019-04-30T03:13:59.413Z,4.70
2019-04-30T03:16:45.684Z,4.40
2019-04-30T03:19:21.445Z,4.20
2019-04-30T03:21:51.757Z,4.50
2019-04-30T03:24:20.375Z,4.70
2019-04-30T03:26:50.532Z,4.77
2019-04-30T03:29:20.393Z,4.00
2019-04-30T03:31:52.397Z,4.40
2019-04-30T03:34:25.576Z,4.17
2019-04-30T03:36:50.551Z,3.67
2019-04-30T03:39:19.879Z,3.77
2019-04-30T03:41:50.208Z,3.90
2019-04-30T03:44:25.402Z,4.00
2019-04-30T03:46:49.795Z,3.83
2019-04-30T03:49:20.239Z,4.10
2019-04-30T03:51:49.903Z,4.50
2019-04-30T03:54:19.296Z,4.40
2019-04-30T03:56:50.192Z,3.80
2019-04-30T03:59:19.921Z,3.70
2019-04-30T04:01:50.185Z,3.73
2019-04-30T04:04:32.330Z,3.27
2019-04-30T04:07:20.106Z,3.23
2019-04-30T04:09:59.836Z,3.47
2019-04-30T04:12:30.475Z,3.60
2019-04-30T04:15:03.225Z,3.90
2019-04-30T04:17:31.393Z,3.40
2019-04-30T04:19:59.726Z,3.40
2019-04-30T04:22:30.702Z,2.93
2019-04-30T04:25:00.140Z,2.83
2019-04-30T04:27:30.107Z,2.50
2019-04-30T04:30:01.219Z,2.23
2019-04-30T04:32:30.902Z,2.00
2019-04-30T04:35:00.280Z,1.87
2019-04-30T04:37:30.135Z,2.40
2019-04-30T04:39:59.659Z,2.27
2019-04-30T04:42:32.457Z,2.17
2019-04-30T04:44:59.544Z,2.30
2019-04-30T04:47:30.765Z,2.30
2019-04-30T04:50:00.670Z,1.90
2019-04-30T04:52:31.391Z,2.37
2019-04-30T04:55:00.470Z,1.73
2019-04-30T04:57:30.365Z,1.90
2019-04-30T05:00:06.437Z,1.77
2019-04-30T05:02:32.622Z,1.50
2019-04-30T05:05:01.064Z,1.50
2019-04-30T05:07:31.210Z,1.40
2019-04-30T05:10:00.989Z,1.23
2019-04-30T05:12:29.879Z,1.37
2019-04-30T05:14:59.732Z,1.10
2019-04-30T05:17:29.705Z,1.03
2019-04-30T05:19:58.858Z,0.90
2019-04-30T05:22:29.147Z,1.03
2019-04-30T05:24:58.864Z,1.07
2019-04-30T05:27:27.510Z,0.90
2019-04-30T05:29:55.895Z,0.77
2019-04-30T05:32:24.311Z,0.70
2019-04-30T05:34:52.706Z,0.90
2019-04-30T05:37:22.532Z,0.90
2019-04-30T05:39:51.250Z,0.73
2019-04-30T05:42:19.650Z,0.77
2019-04-30T05:44:49.742Z,0.70
2019-04-30T05:47:19.611Z,0.60
2019-04-30T05:49:48.905Z,1.20
2019-04-30T05:52:19.676Z,0.90
2019-04-30T05:54:48.801Z,0.90
2019-04-30T05:57:19.599Z,0.80
2019-04-30T05:59:48.752Z,1.00
2019-04-30T06:02:19.430Z,0.90
2019-04-30T06:04:48.889Z,0.73
2019-04-30T06:07:18.927Z,0.77
2019-04-30T06:09:50.244Z,0.53
2019-04-30T06:12:39.254Z,0.60
2019-04-30T06:20:36.358Z,1.13
2019-04-30T06:23:44.816Z,1.47
2019-04-30T06:26:53.114Z,1.70
2019-04-30T06:30:01.531Z,1.60
2019-04-30T06:33:11.732Z,1.53
2019-04-30T06:36:19.944Z,3.20
2019-04-30T06:38:48.958Z,1.80
2019-04-30T06:41:19.823Z,1.70
2019-04-30T06:44:36.927Z,1.20
2019-04-30T06:47:39.016Z,1.10
2019-04-30T06:50:49.267Z,1.30
2019-04-30T06:53:19.215Z,1.60
2019-04-30T06:55:49.303Z,1.70
2019-04-30T06:58:20.473Z,1.90
2019-04-30T07:00:49.741Z,1.70
2019-04-30T07:03:19.445Z,2.17
2019-04-30T07:05:48.824Z,2.70
2019-04-30T07:08:42.014Z,2.80
2019-04-30T07:14:02.342Z,2.10
2019-04-30T07:16:30.736Z,1.70
2019-04-30T07:18:59.127Z,1.20
2019-04-30T07:21:31.272Z,1.27
2019-04-30T07:23:59.569Z,1.30
2019-04-30T07:26:28.941Z,1.70
2019-04-30T07:28:59.806Z,1.30
2019-04-30T07:31:29.593Z,0.80
2019-04-30T07:33:59.484Z,0.70
2019-04-30T07:36:43.323Z,0.63
2019-04-30T07:38:59.959Z,0.70
2019-04-30T07:41:30.897Z,0.80
2019-04-30T07:43:59.331Z,0.60
2019-04-30T07:46:29.765Z,0.70
2019-04-30T07:48:59.824Z,2.30
2019-04-30T07:51:32.083Z,2.50
2019-04-30T07:53:59.046Z,2.77
2019-04-30T07:56:34.923Z,2.30
2019-04-30T07:59:00.672Z,2.67
2019-04-30T08:01:32.668Z,0.93
2019-04-30T08:04:05.711Z,0.90
2019-04-30T08:06:34.206Z,0.90
2019-04-30T08:09:02.684Z,0.80
2019-04-30T08:11:34.355Z,0.87
2019-04-30T08:14:01.792Z,1.00
2019-04-30T08:16:30.387Z,1.67
2019-04-30T08:18:59.254Z,1.90
2019-04-30T08:21:28.791Z,1.50
2019-04-30T08:23:59.317Z,1.27
2019-04-30T08:26:28.670Z,1.10
2019-04-30T08:28:57.204Z,1.70
2019-04-30T08:31:25.588Z,1.63
2019-04-30T08:33:54.519Z,1.40
2019-04-30T08:36:22.960Z,1.27
2019-04-30T08:38:51.294Z,1.47
2019-04-30T08:41:19.726Z,1.10
2019-04-30T08:43:49.622Z,1.03
2019-04-30T08:46:19.016Z,1.40
2019-04-30T08:48:51.782Z,1.30
2019-04-30T08:51:19.087Z,1.50
2019-04-30T08:53:48.630Z,1.60
2019-04-30T08:56:21.584Z,1.67
2019-04-30T08:58:49.086Z,1.80
2019-04-30T09:01:19.615Z,1.40
2019-04-30T09:03:50.967Z,0.70
2019-04-30T09:06:19.641Z,0.60
2019-04-30T09:08:49.041Z,0.83
2019-04-30T09:11:25.104Z,0.70
2019-04-30T09:13:48.822Z,0.70
2019-04-30T09:16:19.271Z,0.37
2019-04-30T09:18:49.438Z,0.40
2019-04-30T09:21:18.691Z,0.30
2019-04-30T09:23:51.838Z,0.40
2019-04-30T09:26:18.708Z,0.60
2019-04-30T09:28:49.261Z,0.60
2019-04-30T09:31:17.269Z,1.10
2019-04-30T09:33:45.987Z,0.97
2019-04-30T09:36:14.378Z,2.10
2019-04-30T09:38:42.772Z,2.60
2019-04-30T09:41:11.950Z,3.03
2019-04-30T09:43:40.599Z,3.20
2019-04-30T09:46:17.872Z,3.17
2019-04-30T09:48:39.648Z,3.43
2019-04-30T09:51:10.481Z,2.27
2019-04-30T09:53:39.465Z,2.00
2019-04-30T09:56:09.558Z,1.43
2019-04-30T09:58:39.359Z,1.27
2019-04-30T10:01:09.426Z,0.60
2019-04-30T10:03:39.690Z,1.20
2019-04-30T10:06:09.001Z,0.70
2019-04-30T10:08:47.913Z,0.90
2019-04-30T10:11:18.887Z,1.00
2019-04-30T10:13:47.282Z,2.10
2019-04-30T10:16:20.128Z,1.30
2019-04-30T10:18:48.569Z,0.97
2019-04-30T10:21:18.980Z,0.63
2019-04-30T10:23:47.239Z,1.20
2019-04-30T10:26:16.033Z,12.03
2019-04-30T10:28:45.363Z,1.17
2019-04-30T10:31:13.923Z,1.30
2019-04-30T10:33:42.420Z,0.90
2019-04-30T10:36:10.829Z,0.97
2019-04-30T10:38:39.437Z,0.80
2019-04-30T10:41:08.792Z,0.77
2019-04-30T10:43:39.347Z,0.80
2019-04-30T10:46:09.557Z,1.10
2019-04-30T10:48:38.221Z,0.80
2019-04-30T10:51:06.609Z,0.97
2019-04-30T10:53:35.003Z,1.00
2019-04-30T10:56:04.382Z,0.90
2019-04-30T10:58:32.841Z,0.80
2019-04-30T11:01:01.932Z,1.20
2019-04-30T11:03:30.537Z,1.00
2019-04-30T11:05:58.937Z,1.13
2019-04-30T11:08:27.330Z,1.40
2019-04-30T11:10:56.120Z,1.30
2019-04-30T11:13:24.524Z,1.30
2019-04-30T11:15:52.923Z,1.33
2019-04-30T11:18:21.615Z,1.43
2019-04-30T11:20:50.411Z,1.17
2019-04-30T11:23:21.010Z,1.80
2019-04-30T11:25:51.082Z,1.90
2019-04-30T11:28:19.865Z,1.60
2019-04-30T11:30:50.324Z,1.70
2019-04-30T11:33:19.124Z,1.70
2019-04-30T11:35:52.835Z,1.50
2019-04-30T11:38:20.360Z,1.60
2019-04-30T11:40:48.639Z,1.60
2019-04-30T11:43:18.194Z,1.60
2019-04-30T11:45:52.741Z,2.20
2019-04-30T11:48:21.127Z,1.47
2019-04-30T11:50:49.784Z,1.60
2019-04-30T11:53:25.520Z,1.80
2019-04-30T11:55:50.315Z,1.30
2019-04-30T11:58:21.851Z,1.07
2019-04-30T12:00:49.575Z,1.63
2019-04-30T12:03:19.224Z,1.17
2019-04-30T12:05:49.137Z,1.00
2019-04-30T12:08:22.587Z,1.10
2019-04-30T12:11:08.758Z,1.20
2019-04-30T12:13:38.619Z,1.23
2019-04-30T12:16:08.705Z,1.13
2019-04-30T12:18:37.142Z,1.60
2019-04-30T12:21:05.634Z,1.17
2019-04-30T12:23:34.284Z,1.00
2019-04-30T12:26:03.198Z,2.27
2019-04-30T12:28:31.926Z,1.23
2019-04-30T12:31:00.331Z,1.10
2019-04-30T12:33:28.825Z,1.20
2019-04-30T12:35:59.445Z,1.20
2019-04-30T12:38:27.474Z,1.07
2019-04-30T12:40:55.873Z,1.27
2019-04-30T12:43:24.293Z,1.40
2019-04-30T12:46:02.799Z,1.50
2019-04-30T12:48:42.481Z,1.43
2019-04-30T12:51:24.585Z,1.83
2019-04-30T12:54:11.108Z,1.90
2019-04-30T12:56:41.147Z,1.93
2019-04-30T12:59:09.560Z,1.80
2019-04-30T13:01:39.901Z,2.10
2019-04-30T13:04:09.778Z,2.27
2019-04-30T13:06:39.010Z,1.77
2019-04-30T13:09:11.188Z,2.70
2019-04-30T13:11:40.937Z,2.83
2019-04-30T13:14:11.018Z,2.50
2019-04-30T13:16:40.027Z,2.83
2019-04-30T13:19:09.322Z,2.97
2019-04-30T13:21:39.530Z,2.83
2019-04-30T13:26:42.388Z,3.40
2019-04-30T13:29:30.067Z,3.63
2019-04-30T13:40:38.959Z,3.20
2019-04-30T13:48:30.776Z,2.80
2019-04-30T13:53:32.801Z,3.00
2019-04-30T13:56:01.252Z,2.90
2019-04-30T13:58:29.661Z,3.17
2019-04-30T14:00:58.129Z,3.10
2019-04-30T14:03:40.437Z,3.50
2019-04-30T14:06:10.483Z,4.30
2019-04-30T14:08:43.257Z,3.40
2019-04-30T14:11:11.789Z,4.37
2019-04-30T14:13:40.325Z,2.63
2019-04-30T14:16:08.851Z,2.90
2019-04-30T14:18:39.033Z,2.93
2019-04-30T14:21:09.340Z,2.60
2019-04-30T14:23:39.587Z,3.00
2019-04-30T14:26:09.567Z,2.87
2019-04-30T14:28:39.108Z,3.20
2019-04-30T14:31:07.801Z,2.80
2019-04-30T14:33:36.512Z,3.10
2019-04-30T14:36:04.973Z,3.07
2019-04-30T14:38:33.383Z,3.00
2019-04-30T14:41:02.569Z,3.57
2019-04-30T14:43:50.424Z,3.70
2019-04-30T14:46:26.199Z,4.20
2019-04-30T14:49:06.571Z,6.23
2019-04-30T14:51:36.327Z,5.33
2019-04-30T14:54:23.166Z,5.63
2019-04-30T14:57:02.701Z,5.80
2019-04-30T14:59:32.742Z,5.77
2019-04-30T15:02:02.921Z,6.40
2019-04-30T15:04:31.799Z,6.30
2019-04-30T15:07:00.270Z,6.37
2019-04-30T15:09:28.681Z,6.37
2019-04-30T15:11:58.634Z,7.50
2019-04-30T15:14:27.176Z,6.83
2019-04-30T15:16:55.545Z,6.67
2019-04-30T15:19:24.232Z,6.93
2019-04-30T15:21:52.635Z,8.17
2019-04-30T15:24:22.677Z,7.30
2019-04-30T15:26:57.692Z,7.60
2019-04-30T15:29:21.265Z,8.03
2019-04-30T15:31:49.727Z,8.40
2019-04-30T15:34:19.258Z,7.97
2019-04-30T15:36:49.288Z,7.33
2019-04-30T15:39:22.446Z,6.20
2019-04-30T15:41:50.921Z,6.97
2019-04-30T15:44:19.477Z,6.57
2019-04-30T15:46:48.066Z,5.47
2019-04-30T15:49:16.469Z,5.53
2019-04-30T15:51:44.991Z,6.40
2019-04-30T15:54:13.650Z,6.70
2019-04-30T15:56:43.797Z,5.93
2019-04-30T15:59:32.127Z,5.80
2019-04-30T16:02:02.163Z,6.10
2019-04-30T16:04:50.271Z,5.93
2019-04-30T16:07:19.631Z,6.73
2019-04-30T16:10:06.111Z,6.27
2019-04-30T16:12:48.714Z,6.77
2019-04-30T16:15:18.530Z,6.17
2019-04-30T16:17:51.241Z,6.83
2019-04-30T16:20:19.653Z,7.27
2019-04-30T16:22:49.349Z,6.70
2019-04-30T16:25:19.385Z,7.43
2019-04-30T16:27:48.131Z,7.77
2019-04-30T16:30:17.096Z,7.73
2019-04-30T16:32:45.505Z,8.40
2019-04-30T16:35:14.071Z,8.40
2019-04-30T16:37:42.515Z,9.27
2019-04-30T16:40:11.371Z,8.83
2019-04-30T16:42:39.776Z,8.67
2019-04-30T16:45:09.410Z,8.70
2019-04-30T16:47:37.878Z,8.13
2019-04-30T16:50:08.966Z,7.77
2019-04-30T16:52:39.328Z,8.13
2019-04-30T16:55:08.248Z,8.27
2019-04-30T16:57:36.915Z,8.00
2019-04-30T17:00:10.031Z,8.33
2019-04-30T17:02:40.073Z,8.33
2019-04-30T17:05:11.229Z,8.23
2019-04-30T17:07:44.548Z,8.27
2019-04-30T17:10:24.177Z,8.00
2019-04-30T17:13:00.544Z,9.07
2019-04-30T17:15:30.710Z,9.17
2019-04-30T17:17:59.131Z,8.83
2019-04-30T17:20:28.748Z,9.20
2019-04-30T17:22:59.352Z,8.53
2019-04-30T17:25:27.412Z,8.87
2019-04-30T17:27:55.837Z,8.47
2019-04-30T17:30:24.573Z,9.00
2019-04-30T17:32:53.038Z,8.13
2019-04-30T17:35:23.508Z,8.03
2019-04-30T17:37:51.909Z,8.00
2019-04-30T17:40:22.176Z,8.13
2019-04-30T17:42:50.613Z,8.53
2019-04-30T17:45:20.012Z,8.70
2019-04-30T17:47:48.448Z,8.60
2019-04-30T17:50:18.761Z,7.83
2019-04-30T17:52:47.322Z,8.40
2019-04-30T17:55:15.962Z,9.00
2019-04-30T17:57:44.388Z,8.70
2019-04-30T18:00:19.388Z,8.77
2019-04-30T18:02:45.113Z,8.97
2019-04-30T18:05:13.883Z,8.53
2019-04-30T18:07:42.363Z,8.90
2019-04-30T18:10:13.070Z,8.50
2019-04-30T18:12:41.492Z,9.07
2019-04-30T18:15:14.581Z,9.27
2019-04-30T18:17:44.694Z,9.73
2019-04-30T18:20:32.997Z,12.37
2019-04-30T18:23:19.255Z,14.63
2019-04-30T18:25:49.404Z,18.53
2019-04-30T18:28:19.096Z,10.10
2019-04-30T18:30:49.084Z,10.13
2019-04-30T18:33:17.629Z,9.53
2019-04-30T18:35:46.032Z,10.27
2019-04-30T18:38:14.509Z,10.03
2019-04-30T18:40:43.084Z,10.03
2019-04-30T18:43:11.664Z,10.90
2019-04-30T18:45:40.131Z,10.00
2019-04-30T18:48:09.733Z,10.00
2019-04-30T18:50:38.319Z,9.67
2019-04-30T18:53:08.756Z,11.33
2019-04-30T18:55:37.270Z,11.93
2019-04-30T18:58:06.010Z,10.50
2019-04-30T19:00:39.659Z,12.47
2019-04-30T19:03:08.649Z,9.70
2019-04-30T19:05:39.278Z,10.30
2019-04-30T19:08:11.923Z,9.77
2019-04-30T19:10:42.167Z,9.67
2019-04-30T19:13:29.887Z,9.90
2019-04-30T19:16:18.732Z,9.73
2019-04-30T19:18:31.756Z,9.30
2019-04-30T19:21:01.792Z,9.53
2019-04-30T19:23:32.469Z,9.97
2019-04-30T19:26:00.875Z,10.80
2019-04-30T19:28:29.271Z,9.83
2019-04-30T19:31:00.840Z,47.90
2019-04-30T19:33:29.215Z,18.40
2019-04-30T19:35:58.687Z,9.73
2019-04-30T19:38:27.100Z,10.93
2019-04-30T19:40:55.504Z,44.53
2019-04-30T19:43:23.908Z,12.93
2019-04-30T19:45:52.344Z,10.07
2019-04-30T19:48:20.733Z,10.30
2019-04-30T19:50:49.140Z,10.47
2019-04-30T19:53:21.822Z,8.67
2019-04-30T19:55:49.256Z,9.60
2019-04-30T19:58:26.214Z,9.43
2019-04-30T20:00:49.848Z,9.67
2019-04-30T20:03:19.757Z,9.40
2019-04-30T20:05:49.352Z,9.73
2019-04-30T20:08:19.719Z,9.90
2019-04-30T20:10:49.629Z,9.07
2019-04-30T20:13:30.851Z,8.60
2019-04-30T20:15:49.368Z,8.60
2019-04-30T20:18:19.051Z,9.07
2019-04-30T20:20:51.875Z,8.90
2019-04-30T20:23:19.708Z,8.80
2019-04-30T20:25:48.184Z,8.97
2019-04-30T20:28:16.593Z,9.40
2019-04-30T20:30:45.004Z,9.37
2019-04-30T20:33:13.493Z,8.43
2019-04-30T20:35:41.900Z,9.13
2019-04-30T20:38:27.876Z,8.90
2019-04-30T20:41:00.095Z,8.60
2019-04-30T20:43:28.434Z,8.83
2019-04-30T20:45:58.642Z,9.00
2019-04-30T20:48:26.728Z,9.20
2019-04-30T20:50:55.129Z,8.70
2019-04-30T20:53:23.712Z,8.93
2019-04-30T20:55:52.108Z,7.77
2019-04-30T20:58:20.510Z,9.53
2019-04-30T21:01:00.552Z,9.03
2019-04-30T21:03:19.669Z,11.20
2019-04-30T21:05:48.360Z,17.93
2019-04-30T21:08:16.953Z,14.07
2019-04-30T21:10:45.364Z,17.10
2019-04-30T21:13:13.769Z,20.10
2019-04-30T21:15:44.063Z,14.17
2019-04-30T21:18:12.456Z,14.73
2019-04-30T21:20:40.856Z,16.40
2019-04-30T21:23:09.511Z,16.90
2019-04-30T21:25:38.754Z,10.50
2019-04-30T21:28:07.249Z,9.33
2019-04-30T21:30:36.319Z,8.13
2019-04-30T21:33:12.134Z,8.63
2019-04-30T21:35:42.204Z,8.80
2019-04-30T21:38:10.606Z,9.30
2019-04-30T21:40:39.439Z,8.63
2019-04-30T21:43:08.380Z,9.10
2019-04-30T21:45:36.784Z,10.43
2019-04-30T21:48:05.591Z,9.67
2019-04-30T21:50:34.343Z,9.67
2019-04-30T21:53:02.734Z,9.90
2019-04-30T21:55:31.133Z,9.83
2019-04-30T21:57:59.672Z,9.73
2019-04-30T22:00:30.046Z,9.93
2019-04-30T22:02:59.816Z,9.03
2019-04-30T22:05:28.336Z,9.67
2019-04-30T22:07:59.061Z,8.97
2019-04-30T22:10:26.866Z,9.80
2019-04-30T22:12:55.307Z,10.17
2019-04-30T22:15:26.496Z,10.27
2019-04-30T22:17:54.892Z,9.97
2019-04-30T22:20:23.508Z,8.47
2019-04-30T22:22:51.904Z,7.83
2019-04-30T22:25:20.292Z,8.90
2019-04-30T22:27:48.709Z,9.10
2019-04-30T22:30:17.370Z,9.03
2019-04-30T22:32:45.768Z,9.07
2019-04-30T22:35:28.322Z,9.17
2019-04-30T22:37:59.236Z,9.20
2019-04-30T22:40:29.043Z,9.03
2019-04-30T22:42:59.339Z,10.17
2019-04-30T22:45:29.455Z,9.87
2019-04-30T22:47:58.898Z,8.90
2019-04-30T22:50:27.457Z,8.70
2019-04-30T22:52:55.852Z,9.43
2019-04-30T22:55:24.260Z,10.37
2019-04-30T22:57:52.692Z,9.13
2019-04-30T23:00:24.414Z,9.37
2019-04-30T23:03:00.104Z,9.33
2019-04-30T23:05:28.585Z,8.93
2019-04-30T23:07:56.980Z,10.27
2019-04-30T23:10:25.402Z,9.10
2019-04-30T23:12:53.873Z,9.03
2019-04-30T23:15:22.332Z,8.60
2019-04-30T23:17:51.109Z,9.13
2019-04-30T23:20:19.831Z,8.83
2019-04-30T23:22:48.226Z,9.97
2019-04-30T23:25:17.167Z,9.23
2019-04-30T23:27:45.564Z,9.23
2019-04-30T23:30:14.601Z,9.13
2019-04-30T23:32:43.251Z,8.30
2019-04-30T23:35:12.481Z,8.93
2019-04-30T23:37:40.945Z,8.80
2019-04-30T23:40:27.593Z,8.53
2019-04-30T23:42:56.403Z,8.07
2019-04-30T23:45:25.106Z,8.90
2019-04-30T23:47:53.660Z,8.53
2019-04-30T23:50:22.126Z,9.17
2019-04-30T23:52:50.527Z,8.70
2019-04-30T23:55:19.073Z,9.43
2019-04-30T23:57:47.471Z,9.23
